VTBD/DMK METAR and TAF weather

Enter ICAO airport designator
Station Type Date Time Source
VTBD METAR 2020/01/18 13:00 UTC NOAA

VTBD 181300Z 21006KT 6000 FEW020 28/25 Q1011 NOSIG


Station Type Date Time Source
VTBD Decoded METAR 2020/01/18 13:00 UTC NOAA

Don Muang, Thailand (VTBD) 13-55N 100-36E 12M
Jan 18, 2020 - 08:00 AM EST / 2020.01.18 1300 UTC
Wind: from the SSW (210 degrees) at 7 MPH (6 KT):0
Visibility: 3 mile(s):0
Sky conditions: mostly clear
Temperature: 82 F (28 C)
Dew Point: 77 F (25 C)
Relative Humidity: 83%
Pressure (altimeter): 29.85 in. Hg (1011 hPa)
ob: VTBD 181300Z 21006KT 6000 FEW020 28/25 Q1011 NOSIG
cycle: 13

Station Type Date Time Source
VTBD TAF 2020/01/18 12:39 UTC NOAA

TAF VTBD 181100Z 1812/1918 20005KT 8000 FEW020
BECMG 1822/1824 10005KT 3000 BR
BECMG 1903/1905 8000 NSW
BECMG 1912/1914 18005KT

Example: see airport list